createdAt,value
2018-06-27T00:01:21.819Z,57.30
2018-06-27T00:03:49.429Z,58.27
2018-06-27T00:06:17.006Z,57.81
2018-06-27T00:08:44.608Z,57.84
2018-06-27T00:11:12.269Z,58.20
2018-06-27T00:13:40.072Z,58.56
2018-06-27T00:16:07.945Z,58.20
2018-06-27T00:18:35.584Z,58.26
2018-06-27T00:21:03.253Z,58.77
2018-06-27T00:23:30.864Z,58.72
2018-06-27T00:25:58.461Z,58.86
2018-06-27T00:28:26.051Z,59.32
2018-06-27T00:30:53.666Z,59.59
2018-06-27T00:33:21.230Z,59.51
2018-06-27T00:35:48.770Z,60.34
2018-06-27T00:38:17.332Z,60.36
2018-06-27T00:40:45.404Z,59.64
2018-06-27T00:43:13.463Z,59.62
2018-06-27T00:45:40.998Z,59.90
2018-06-27T00:48:08.991Z,60.07
2018-06-27T00:50:36.679Z,60.35
2018-06-27T00:53:04.240Z,60.52
2018-06-27T00:55:31.874Z,60.69
2018-06-27T00:57:59.466Z,60.94
2018-06-27T01:00:27.023Z,60.99
2018-06-27T01:02:54.835Z,61.06
2018-06-27T01:05:22.350Z,61.36
2018-06-27T01:07:49.898Z,61.23
2018-06-27T01:10:17.527Z,61.51
2018-06-27T01:12:45.666Z,61.08
2018-06-27T01:15:13.252Z,61.45
2018-06-27T01:17:40.978Z,61.28
2018-06-27T01:20:08.534Z,61.54
2018-06-27T01:22:36.121Z,61.11
2018-06-27T01:25:03.834Z,61.36
2018-06-27T01:27:31.466Z,61.55
2018-06-27T01:29:59.028Z,61.47
2018-06-27T01:32:26.727Z,61.84
2018-06-27T01:34:54.311Z,61.73
2018-06-27T01:37:21.900Z,61.89
2018-06-27T01:39:49.507Z,61.89
2018-06-27T01:42:17.061Z,62.19
2018-06-27T01:44:44.663Z,62.49
2018-06-27T01:47:12.295Z,62.26
2018-06-27T01:49:39.887Z,62.28
2018-06-27T01:52:07.420Z,62.31
2018-06-27T01:54:35.004Z,62.30
2018-06-27T01:57:02.570Z,62.15
2018-06-27T01:59:30.116Z,62.33
2018-06-27T02:01:57.693Z,62.32
2018-06-27T02:04:25.247Z,62.38
2018-06-27T02:06:52.795Z,61.90
2018-06-27T02:09:20.367Z,62.20
2018-06-27T02:11:47.935Z,62.18
2018-06-27T02:14:15.470Z,62.00
2018-06-27T02:16:43.054Z,62.47
2018-06-27T02:19:10.619Z,62.61
2018-06-27T02:21:38.182Z,62.29
2018-06-27T02:24:05.808Z,62.65
2018-06-27T02:26:33.337Z,62.89
2018-06-27T02:29:00.926Z,62.54
2018-06-27T02:31:28.556Z,62.66
2018-06-27T02:33:56.127Z,62.34
2018-06-27T02:36:23.692Z,62.65
2018-06-27T02:38:51.325Z,62.42
2018-06-27T02:41:18.864Z,62.52
2018-06-27T02:43:46.432Z,62.54
2018-06-27T02:46:14.018Z,62.67
2018-06-27T02:48:41.565Z,62.87
2018-06-27T02:51:09.172Z,62.59
2018-06-27T02:53:38.603Z,62.72
2018-06-27T02:56:08.215Z,62.59
2018-06-27T02:58:35.795Z,62.62
2018-06-27T03:01:04.354Z,62.59
2018-06-27T03:03:32.019Z,62.45
2018-06-27T03:05:59.995Z,62.62
2018-06-27T03:08:27.747Z,62.40
2018-06-27T03:10:55.468Z,62.56
2018-06-27T03:13:23.055Z,62.39
2018-06-27T03:15:50.615Z,62.26
2018-06-27T03:18:18.179Z,62.47
2018-06-27T03:20:45.767Z,62.22
2018-06-27T03:23:13.398Z,62.40
2018-06-27T03:25:40.939Z,62.55
2018-06-27T03:28:08.495Z,62.47
2018-06-27T03:30:36.087Z,62.76
2018-06-27T03:33:03.686Z,62.76
2018-06-27T03:35:31.235Z,62.58
2018-06-27T03:37:58.806Z,62.75
2018-06-27T03:40:26.366Z,62.42
2018-06-27T03:42:53.939Z,62.73
2018-06-27T03:45:21.603Z,63.15
2018-06-27T03:47:49.178Z,62.85
2018-06-27T03:50:16.754Z,62.95
2018-06-27T03:52:46.707Z,62.78
2018-06-27T03:55:14.531Z,62.93
2018-06-27T03:57:42.106Z,62.90
2018-06-27T04:00:09.427Z,62.44
2018-06-27T04:02:36.966Z,62.48
2018-06-27T04:05:04.687Z,62.66
2018-06-27T04:07:32.267Z,62.76
2018-06-27T04:09:59.906Z,63.19
2018-06-27T04:12:27.542Z,62.89
2018-06-27T04:14:55.138Z,62.37
2018-06-27T04:17:22.790Z,62.54
2018-06-27T04:19:50.361Z,62.84
2018-06-27T04:22:22.966Z,63.03
2018-06-27T04:24:50.482Z,62.61
2018-06-27T04:27:18.042Z,62.47
2018-06-27T04:29:45.631Z,62.72
2018-06-27T04:32:13.167Z,61.82
2018-06-27T04:34:40.714Z,62.11
2018-06-27T04:37:08.327Z,61.32
2018-06-27T04:39:35.960Z,61.12
2018-06-27T04:42:03.534Z,61.47
2018-06-27T04:44:31.105Z,61.29
2018-06-27T04:46:58.746Z,60.74
2018-06-27T04:49:26.332Z,60.49
2018-06-27T04:51:53.901Z,60.45
2018-06-27T04:54:21.446Z,61.07
2018-06-27T04:56:48.985Z,60.99
2018-06-27T04:59:16.574Z,60.64
2018-06-27T05:01:44.158Z,60.80
2018-06-27T05:04:11.651Z,60.43
2018-06-27T05:06:39.197Z,60.71
2018-06-27T05:09:08.122Z,59.87
2018-06-27T05:11:35.693Z,59.51
2018-06-27T05:14:03.365Z,59.20
2018-06-27T05:16:30.889Z,59.68
2018-06-27T05:18:58.460Z,59.22
2018-06-27T05:21:26.057Z,59.56
2018-06-27T05:23:53.598Z,58.43
2018-06-27T05:26:21.122Z,57.91
2018-06-27T05:28:48.670Z,58.14
2018-06-27T05:31:16.258Z,58.39
2018-06-27T05:33:43.802Z,58.55
2018-06-27T05:36:11.368Z,58.38
2018-06-27T05:38:39.022Z,58.21
2018-06-27T05:41:06.579Z,58.21
2018-06-27T05:43:34.186Z,59.05
2018-06-27T05:46:01.737Z,58.61
2018-06-27T05:48:29.267Z,58.82
2018-06-27T05:50:56.850Z,58.59
2018-06-27T05:53:24.386Z,57.94
2018-06-27T05:55:51.931Z,57.87
2018-06-27T05:58:19.582Z,57.96
2018-06-27T06:00:47.086Z,57.75
2018-06-27T06:03:14.638Z,58.12
2018-06-27T06:05:42.236Z,57.90
2018-06-27T06:08:09.758Z,56.87
2018-06-27T06:10:37.322Z,56.63
2018-06-27T06:13:04.999Z,56.69
2018-06-27T06:15:32.531Z,56.37
2018-06-27T06:18:00.087Z,55.14
2018-06-27T06:20:27.688Z,55.78
2018-06-27T06:22:55.208Z,56.80
2018-06-27T06:25:22.770Z,56.65
2018-06-27T06:27:50.347Z,55.47
2018-06-27T06:30:17.891Z,55.57
2018-06-27T06:32:45.419Z,54.93
2018-06-27T06:35:12.962Z,54.85
2018-06-27T06:37:40.721Z,54.41
2018-06-27T06:40:08.084Z,53.99
2018-06-27T06:42:35.666Z,53.68
2018-06-27T06:45:03.268Z,54.04
2018-06-27T06:47:30.806Z,54.05
2018-06-27T06:49:58.358Z,52.68
2018-06-27T06:52:25.884Z,52.82
2018-06-27T06:54:53.399Z,51.87
2018-06-27T06:57:20.962Z,51.86
2018-06-27T06:59:48.491Z,51.43
2018-06-27T07:02:16.022Z,51.15
2018-06-27T07:04:43.586Z,51.71
2018-06-27T07:07:11.127Z,50.80
2018-06-27T07:09:38.651Z,50.45
2018-06-27T07:12:06.268Z,50.45
2018-06-27T07:14:33.806Z,47.79
2018-06-27T07:17:01.355Z,48.62
2018-06-27T07:19:28.982Z,48.94
2018-06-27T07:21:56.506Z,47.49
2018-06-27T07:24:24.020Z,47.09
2018-06-27T07:26:51.588Z,47.60
2018-06-27T07:29:19.144Z,47.34
2018-06-27T07:31:46.679Z,45.34
2018-06-27T07:34:14.240Z,46.16
2018-06-27T07:36:41.915Z,45.85
2018-06-27T07:39:10.803Z,44.97
2018-06-27T07:41:38.407Z,45.87
2018-06-27T07:44:05.947Z,45.65
2018-06-27T07:46:33.583Z,44.42
2018-06-27T07:49:01.163Z,43.72
2018-06-27T07:51:28.727Z,44.16
2018-06-27T07:53:56.287Z,42.27
2018-06-27T07:56:24.114Z,40.51
2018-06-27T07:58:51.635Z,40.52
2018-06-27T08:01:19.199Z,38.38
2018-06-27T08:03:46.762Z,39.39
2018-06-27T08:06:14.307Z,39.18
2018-06-27T08:08:41.870Z,40.01
2018-06-27T08:11:09.536Z,38.44
2018-06-27T08:13:37.110Z,40.14
2018-06-27T08:16:04.950Z,38.14
2018-06-27T08:18:41.701Z,38.41
2018-06-27T08:21:09.527Z,36.58
2018-06-27T08:23:37.067Z,36.55
2018-06-27T08:26:04.798Z,35.15
2018-06-27T08:28:32.280Z,36.04
2018-06-27T08:30:59.858Z,36.09
2018-06-27T08:33:27.439Z,35.01
2018-06-27T08:35:54.978Z,35.15
2018-06-27T08:38:22.513Z,35.16
2018-06-27T08:40:50.086Z,33.74
2018-06-27T08:43:17.613Z,33.21
2018-06-27T08:45:45.168Z,33.40
2018-06-27T08:48:12.783Z,33.51
2018-06-27T08:50:40.320Z,33.24
2018-06-27T08:53:07.875Z,32.88
2018-06-27T08:55:35.557Z,32.59
2018-06-27T08:58:03.078Z,31.76
2018-06-27T09:00:30.598Z,31.81
2018-06-27T09:02:58.146Z,30.21
2018-06-27T09:05:25.687Z,31.22
2018-06-27T09:07:53.245Z,31.68
2018-06-27T09:10:20.852Z,31.98
2018-06-27T09:12:48.412Z,31.67
2018-06-27T09:15:15.942Z,33.08
2018-06-27T09:17:43.518Z,33.83
2018-06-27T09:20:11.054Z,31.78
2018-06-27T09:22:38.615Z,31.36
2018-06-27T09:25:06.196Z,31.58
2018-06-27T09:27:33.721Z,33.42
2018-06-27T09:30:01.276Z,34.25
2018-06-27T09:32:28.849Z,33.79
2018-06-27T09:34:56.376Z,33.91
2018-06-27T09:37:23.962Z,31.80
2018-06-27T09:39:51.522Z,32.07
2018-06-27T09:42:19.055Z,32.60
2018-06-27T09:44:46.571Z,33.54
2018-06-27T09:47:14.132Z,32.71
2018-06-27T09:49:42.223Z,33.05
2018-06-27T09:52:10.016Z,31.87
2018-06-27T09:54:39.949Z,30.27
2018-06-27T09:57:08.419Z,30.30
2018-06-27T09:59:35.941Z,29.84
2018-06-27T10:02:03.599Z,31.87
2018-06-27T10:04:31.181Z,32.65
2018-06-27T10:06:58.698Z,34.21
2018-06-27T10:09:26.269Z,34.00
2018-06-27T10:11:53.787Z,35.21
2018-06-27T10:14:21.381Z,32.42
2018-06-27T10:16:49.026Z,31.13
2018-06-27T10:19:16.560Z,32.15
2018-06-27T10:21:44.115Z,32.33
2018-06-27T10:24:11.712Z,33.00
2018-06-27T10:26:39.271Z,32.22
2018-06-27T10:29:06.809Z,32.75
2018-06-27T10:31:34.383Z,32.86
2018-06-27T10:34:01.910Z,33.81
2018-06-27T10:36:29.496Z,34.91
2018-06-27T10:38:57.083Z,35.32
2018-06-27T10:41:24.636Z,34.57
2018-06-27T10:43:52.266Z,35.09
2018-06-27T10:46:19.848Z,34.91
2018-06-27T10:48:47.390Z,34.66
2018-06-27T10:51:14.967Z,35.78
2018-06-27T10:53:42.522Z,35.96
2018-06-27T10:56:10.147Z,35.70
2018-06-27T10:58:37.696Z,35.34
2018-06-27T11:01:05.286Z,35.79
2018-06-27T11:03:32.825Z,36.08
2018-06-27T11:06:00.381Z,34.79
2018-06-27T11:08:27.990Z,34.23
2018-06-27T11:10:55.535Z,34.78
2018-06-27T11:13:23.057Z,35.40
2018-06-27T11:15:50.634Z,35.93
2018-06-27T11:18:18.203Z,36.51
2018-06-27T11:20:45.811Z,37.44
2018-06-27T11:23:13.607Z,36.70
2018-06-27T11:25:41.159Z,36.24
2018-06-27T11:28:08.711Z,37.43
2018-06-27T11:30:36.327Z,37.60
2018-06-27T11:33:03.914Z,38.03
2018-06-27T11:35:31.444Z,38.26
2018-06-27T11:37:59.023Z,37.61
2018-06-27T11:40:26.574Z,36.67
2018-06-27T11:42:54.118Z,37.60
2018-06-27T11:45:22.030Z,36.78
2018-06-27T11:47:49.572Z,36.70
2018-06-27T11:50:17.151Z,37.09
2018-06-27T11:52:44.762Z,37.04
2018-06-27T11:55:13.020Z,37.46
2018-06-27T11:57:42.314Z,36.35
2018-06-27T12:00:09.969Z,33.48
2018-06-27T12:02:37.922Z,31.00
2018-06-27T12:05:06.121Z,27.05
2018-06-27T12:07:33.682Z,26.13
2018-06-27T12:10:01.283Z,24.81
2018-06-27T12:12:29.197Z,23.27
2018-06-27T12:14:56.854Z,22.96
2018-06-27T12:17:24.441Z,21.61
2018-06-27T12:19:51.985Z,21.48
2018-06-27T12:22:19.573Z,19.47
2018-06-27T12:24:47.146Z,18.12
2018-06-27T12:27:14.694Z,22.76
2018-06-27T12:29:42.294Z,24.01
2018-06-27T12:32:09.871Z,25.52
2018-06-27T12:34:37.926Z,27.23
2018-06-27T12:37:05.517Z,29.05
2018-06-27T12:39:33.027Z,28.29
2018-06-27T12:42:00.580Z,27.75
2018-06-27T12:44:28.274Z,26.93
2018-06-27T12:46:55.807Z,28.78
2018-06-27T12:49:23.373Z,29.49
2018-06-27T12:51:50.974Z,28.69
2018-06-27T12:54:18.541Z,23.51
2018-06-27T12:56:46.083Z,23.04
2018-06-27T12:59:13.707Z,19.02
2018-06-27T13:01:41.226Z,19.30
2018-06-27T13:04:08.848Z,18.65
2018-06-27T13:06:36.463Z,18.75
2018-06-27T13:09:07.244Z,18.13
2018-06-27T13:11:34.736Z,16.71
2018-06-27T13:14:02.401Z,18.80
2018-06-27T13:16:29.929Z,19.19
2018-06-27T13:18:57.544Z,18.27
2018-06-27T13:21:25.127Z,16.84
2018-06-27T13:23:52.732Z,16.89
2018-06-27T13:26:20.298Z,16.73
2018-06-27T13:28:47.878Z,16.34
2018-06-27T13:31:15.435Z,19.67
2018-06-27T13:33:43.463Z,21.14
2018-06-27T13:36:11.024Z,22.88
2018-06-27T13:38:38.578Z,24.61
2018-06-27T13:41:06.102Z,25.43
2018-06-27T13:43:33.751Z,26.37
2018-06-27T13:46:01.307Z,27.06
2018-06-27T13:48:28.834Z,26.31
2018-06-27T13:50:56.442Z,25.98
2018-06-27T13:53:23.967Z,24.65
2018-06-27T13:55:51.526Z,23.11
2018-06-27T13:58:19.090Z,22.73
2018-06-27T14:00:46.643Z,24.78
2018-06-27T14:03:14.179Z,24.68
2018-06-27T14:05:43.153Z,25.94
2018-06-27T14:08:10.776Z,26.02
2018-06-27T14:10:38.426Z,25.94
2018-06-27T14:13:06.033Z,26.14
2018-06-27T14:15:33.935Z,26.04
2018-06-27T14:18:01.722Z,25.89
2018-06-27T14:20:29.309Z,25.64
2018-06-27T14:22:57.224Z,25.96
2018-06-27T14:25:24.950Z,24.26
2018-06-27T14:27:52.816Z,22.33
2018-06-27T14:30:20.423Z,24.01
2018-06-27T14:32:48.205Z,24.45
2018-06-27T14:35:16.041Z,24.33
2018-06-27T14:37:43.638Z,25.32
2018-06-27T14:40:11.379Z,26.71
2018-06-27T14:42:38.922Z,25.42
2018-06-27T14:45:07.054Z,24.45
2018-06-27T14:47:34.695Z,23.49
2018-06-27T14:50:02.435Z,21.42
2018-06-27T14:52:30.004Z,22.29
2018-06-27T14:54:57.878Z,21.18
2018-06-27T14:57:25.845Z,21.35
2018-06-27T14:59:53.468Z,21.89
2018-06-27T15:02:21.454Z,22.28
2018-06-27T15:04:49.096Z,23.03
2018-06-27T15:07:17.011Z,23.60
2018-06-27T15:09:44.982Z,24.54
2018-06-27T15:12:12.828Z,24.75
2018-06-27T15:14:40.446Z,25.14
2018-06-27T15:17:08.021Z,25.41
2018-06-27T15:19:35.832Z,26.33
2018-06-27T15:22:03.476Z,26.67
2018-06-27T15:24:31.051Z,27.74
2018-06-27T15:26:59.824Z,27.42
2018-06-27T15:29:27.485Z,28.47
2018-06-27T15:31:55.270Z,28.99
2018-06-27T15:34:23.075Z,30.17
2018-06-27T15:36:51.055Z,30.24
2018-06-27T15:39:18.716Z,30.10
2018-06-27T15:41:46.572Z,30.18
2018-06-27T15:44:14.334Z,29.87
2018-06-27T15:46:42.118Z,29.79
2018-06-27T15:49:11.103Z,30.07
2018-06-27T15:51:39.215Z,30.19
2018-06-27T15:54:07.097Z,30.35
2018-06-27T15:56:34.949Z,30.24
2018-06-27T15:59:02.888Z,30.90
2018-06-27T16:01:30.664Z,30.35
2018-06-27T16:03:58.659Z,31.13
2018-06-27T16:06:26.807Z,30.86
2018-06-27T16:08:54.598Z,30.95
2018-06-27T16:11:22.220Z,31.02
2018-06-27T16:13:49.819Z,31.48
2018-06-27T16:16:17.369Z,30.68
2018-06-27T16:18:44.959Z,30.32
2018-06-27T16:21:12.658Z,30.38
2018-06-27T16:23:40.246Z,30.99
2018-06-27T16:26:07.882Z,30.85
2018-06-27T16:28:35.473Z,30.91
2018-06-27T16:31:03.097Z,31.05
2018-06-27T16:33:30.711Z,31.50
2018-06-27T16:35:58.384Z,31.71
2018-06-27T16:38:26.111Z,32.36
2018-06-27T16:40:53.737Z,32.77
2018-06-27T16:43:21.294Z,32.92
2018-06-27T16:45:48.938Z,32.45
2018-06-27T16:48:16.565Z,32.78
2018-06-27T16:50:44.369Z,32.67
2018-06-27T16:53:12.970Z,32.51
2018-06-27T16:55:40.663Z,33.02
2018-06-27T16:58:08.562Z,33.13
2018-06-27T17:00:36.188Z,33.02
2018-06-27T17:03:03.819Z,32.76
2018-06-27T17:05:31.510Z,32.97
2018-06-27T17:07:59.124Z,33.54
2018-06-27T17:10:26.721Z,33.85
2018-06-27T17:12:55.474Z,33.62
2018-06-27T17:15:23.051Z,34.13
2018-06-27T17:17:50.765Z,34.50
2018-06-27T17:20:18.287Z,33.08
2018-06-27T17:22:45.855Z,33.85
2018-06-27T17:25:13.540Z,34.31
2018-06-27T17:27:41.066Z,33.63
2018-06-27T17:30:08.637Z,33.85
2018-06-27T17:32:36.314Z,33.55
2018-06-27T17:35:04.236Z,32.81
2018-06-27T17:37:31.984Z,32.68
2018-06-27T17:39:59.718Z,33.06
2018-06-27T17:42:27.354Z,33.28
2018-06-27T17:44:54.997Z,33.74
2018-06-27T17:47:22.647Z,33.73
2018-06-27T17:49:50.229Z,34.04
2018-06-27T17:52:17.816Z,34.25
2018-06-27T17:54:45.439Z,34.27
2018-06-27T17:57:13.073Z,34.83
2018-06-27T17:59:40.635Z,34.68
2018-06-27T18:02:08.288Z,34.92
2018-06-27T18:04:36.437Z,34.73
2018-06-27T18:07:04.164Z,34.86
2018-06-27T18:09:31.816Z,34.68
2018-06-27T18:11:59.457Z,35.87
2018-06-27T18:14:27.104Z,35.34
2018-06-27T18:16:54.880Z,35.54
2018-06-27T18:19:22.439Z,35.98
2018-06-27T18:21:50.057Z,36.44
2018-06-27T18:24:17.740Z,36.51
2018-06-27T18:26:45.417Z,36.59
2018-06-27T18:29:13.059Z,37.04
2018-06-27T18:31:40.766Z,37.05
2018-06-27T18:34:08.420Z,37.10
2018-06-27T18:36:36.058Z,37.75
2018-06-27T18:39:05.774Z,37.84
2018-06-27T18:41:33.357Z,37.79
2018-06-27T18:44:00.931Z,38.00
2018-06-27T18:46:28.601Z,38.28
2018-06-27T18:48:56.222Z,38.49
2018-06-27T18:51:23.835Z,38.75
2018-06-27T18:53:51.547Z,39.06
2018-06-27T18:56:19.162Z,39.24
2018-06-27T18:58:46.941Z,39.06
2018-06-27T19:01:14.631Z,39.46
2018-06-27T19:03:42.569Z,39.64
2018-06-27T19:06:10.208Z,39.65
2018-06-27T19:08:37.958Z,39.68
2018-06-27T19:11:05.579Z,40.33
2018-06-27T19:13:33.216Z,40.18
2018-06-27T19:16:00.874Z,40.15
2018-06-27T19:18:28.461Z,41.04
2018-06-27T19:20:56.083Z,40.51
2018-06-27T19:23:23.716Z,41.24
2018-06-27T19:25:51.316Z,41.23
2018-06-27T19:28:18.934Z,41.75
2018-06-27T19:30:46.530Z,42.09
2018-06-27T19:33:14.102Z,42.25
2018-06-27T19:35:41.725Z,42.29
2018-06-27T19:38:09.409Z,41.93
2018-06-27T19:40:37.055Z,42.11
2018-06-27T19:43:04.602Z,42.68
2018-06-27T19:45:32.220Z,42.98
2018-06-27T19:47:59.975Z,42.46
2018-06-27T19:50:27.412Z,43.01
2018-06-27T19:52:55.103Z,43.10
2018-06-27T19:55:22.698Z,43.65
2018-06-27T19:57:50.407Z,43.91
2018-06-27T20:00:18.095Z,44.08
2018-06-27T20:02:45.635Z,44.01
2018-06-27T20:05:13.228Z,44.84
2018-06-27T20:07:40.977Z,45.72
2018-06-27T20:10:08.479Z,45.64
2018-06-27T20:12:36.131Z,45.45
2018-06-27T20:15:03.847Z,45.75
2018-06-27T20:17:31.617Z,46.22
2018-06-27T20:19:59.175Z,46.44
2018-06-27T20:22:26.900Z,46.22
2018-06-27T20:24:54.388Z,46.91
2018-06-27T20:27:21.990Z,47.46
2018-06-27T20:29:49.551Z,49.31
2018-06-27T20:32:17.075Z,48.11
2018-06-27T20:34:44.668Z,48.80
2018-06-27T20:37:12.307Z,48.60
2018-06-27T20:39:39.814Z,49.19
2018-06-27T20:42:07.400Z,49.42
2018-06-27T20:44:34.953Z,50.02
2018-06-27T20:47:02.543Z,49.73
2018-06-27T20:49:30.171Z,50.60
2018-06-27T20:51:57.973Z,50.26
2018-06-27T20:54:25.547Z,50.53
2018-06-27T20:56:53.140Z,50.89
2018-06-27T20:59:20.934Z,50.76
2018-06-27T21:01:48.534Z,51.30
2018-06-27T21:04:16.093Z,51.47
2018-06-27T21:06:43.671Z,51.55
2018-06-27T21:09:11.779Z,51.54
2018-06-27T21:11:39.352Z,51.91
2018-06-27T21:14:06.903Z,51.34
2018-06-27T21:16:34.431Z,51.94
2018-06-27T21:19:01.989Z,51.79
2018-06-27T21:21:29.583Z,52.29
2018-06-27T21:23:57.141Z,51.96
2018-06-27T21:26:24.646Z,52.31
2018-06-27T21:28:52.182Z,52.85
2018-06-27T21:31:19.735Z,52.15
2018-06-27T21:33:47.451Z,52.24
2018-06-27T21:36:15.026Z,52.76
2018-06-27T21:38:43.666Z,52.97
2018-06-27T21:41:11.194Z,53.03
2018-06-27T21:43:38.750Z,53.38
2018-06-27T21:46:06.280Z,53.47
2018-06-27T21:48:33.863Z,52.75
2018-06-27T21:51:01.413Z,53.03
2018-06-27T21:53:28.950Z,52.47
2018-06-27T21:55:56.522Z,52.39
2018-06-27T21:58:24.332Z,52.93
2018-06-27T22:00:51.959Z,53.40
2018-06-27T22:03:19.478Z,53.50
2018-06-27T22:05:47.066Z,53.45
2018-06-27T22:08:14.610Z,53.44
2018-06-27T22:10:42.133Z,53.02
2018-06-27T22:13:09.690Z,53.25
2018-06-27T22:15:37.245Z,53.09
2018-06-27T22:18:04.928Z,53.50
2018-06-27T22:20:32.522Z,53.83
2018-06-27T22:23:00.058Z,52.93
2018-06-27T22:25:28.748Z,53.17
2018-06-27T22:27:56.407Z,52.89
2018-06-27T22:30:23.962Z,53.72
2018-06-27T22:32:51.531Z,54.60
2018-06-27T22:35:19.115Z,53.91
2018-06-27T22:37:46.655Z,54.46
2018-06-27T22:40:14.182Z,54.64
2018-06-27T22:42:41.763Z,55.31
2018-06-27T22:45:09.323Z,55.04
2018-06-27T22:47:36.836Z,55.31
2018-06-27T22:50:04.463Z,55.36
2018-06-27T22:52:32.018Z,54.96
2018-06-27T22:54:59.570Z,55.16
2018-06-27T22:57:27.178Z,55.12
2018-06-27T22:59:54.738Z,55.26
2018-06-27T23:02:22.275Z,55.20
2018-06-27T23:04:49.815Z,55.59
2018-06-27T23:07:17.370Z,55.28
2018-06-27T23:09:44.937Z,54.98
2018-06-27T23:12:12.450Z,55.32
2018-06-27T23:14:40.027Z,55.36
2018-06-27T23:17:07.652Z,55.35
2018-06-27T23:19:35.159Z,55.60
2018-06-27T23:22:02.719Z,55.57
2018-06-27T23:24:30.278Z,55.50
2018-06-27T23:26:57.886Z,55.48
2018-06-27T23:29:25.402Z,55.05
2018-06-27T23:31:52.951Z,55.22
2018-06-27T23:34:20.575Z,55.26
2018-06-27T23:36:48.137Z,55.55
2018-06-27T23:39:15.660Z,55.48
2018-06-27T23:41:43.597Z,56.07
2018-06-27T23:44:11.119Z,56.05
2018-06-27T23:46:38.779Z,55.89
2018-06-27T23:49:06.527Z,56.38
2018-06-27T23:51:34.071Z,56.11
2018-06-27T23:54:01.635Z,56.26
2018-06-27T23:56:29.176Z,56.79
2018-06-27T23:58:56.795Z,56.52
